sensor_id;sensor_type;location;lat;lon;timestamp;P1;durP1;ratioP1;P2;durP2;ratioP2
11854;SDS011;5987;53.140;8.904;2023-02-28T00:01:57;6.77;;;5.27;;
11854;SDS011;5987;53.140;8.904;2023-02-28T00:05:02;7.03;;;5.40;;
11854;SDS011;5987;53.140;8.904;2023-02-28T00:08:08;11.10;;;6.00;;
11854;SDS011;5987;53.140;8.904;2023-02-28T00:11:13;9.97;;;5.73;;
11854;SDS011;5987;53.140;8.904;2023-02-28T00:14:18;8.63;;;5.60;;
11854;SDS011;5987;53.140;8.904;2023-02-28T00:17:22;9.87;;;5.73;;
11854;SDS011;5987;53.140;8.904;2023-02-28T00:20:27;9.43;;;5.10;;
11854;SDS011;5987;53.140;8.904;2023-02-28T00:23:31;5.90;;;4.90;;
11854;SDS011;5987;53.140;8.904;2023-02-28T00:26:35;7.80;;;5.30;;
11854;SDS011;5987;53.140;8.904;2023-02-28T00:29:38;9.97;;;4.80;;
11854;SDS011;5987;53.140;8.904;2023-02-28T00:32:42;7.67;;;4.97;;
11854;SDS011;5987;53.140;8.904;2023-02-28T00:35:48;5.87;;;4.70;;
11854;SDS011;5987;53.140;8.904;2023-02-28T00:38:53;8.17;;;5.23;;
11854;SDS011;5987;53.140;8.904;2023-02-28T00:41:56;8.00;;;4.73;;
11854;SDS011;5987;53.140;8.904;2023-02-28T00:45:00;10.30;;;5.43;;
11854;SDS011;5987;53.140;8.904;2023-02-28T00:48:06;9.87;;;5.43;;
11854;SDS011;5987;53.140;8.904;2023-02-28T00:51:11;10.10;;;5.43;;
11854;SDS011;5987;53.140;8.904;2023-02-28T00:54:14;6.63;;;4.90;;
11854;SDS011;5987;53.140;8.904;2023-02-28T00:57:19;7.40;;;5.30;;
11854;SDS011;5987;53.140;8.904;2023-02-28T01:00:22;9.27;;;5.07;;
11854;SDS011;5987;53.140;8.904;2023-02-28T01:03:26;8.80;;;5.40;;
11854;SDS011;5987;53.140;8.904;2023-02-28T01:06:31;8.67;;;5.23;;
11854;SDS011;5987;53.140;8.904;2023-02-28T01:09:35;9.20;;;5.20;;
11854;SDS011;5987;53.140;8.904;2023-02-28T01:12:39;9.40;;;5.20;;
11854;SDS011;5987;53.140;8.904;2023-02-28T01:15:44;9.63;;;5.40;;
11854;SDS011;5987;53.140;8.904;2023-02-28T01:18:53;5.63;;;4.53;;
11854;SDS011;5987;53.140;8.904;2023-02-28T01:21:58;10.40;;;5.60;;
11854;SDS011;5987;53.140;8.904;2023-02-28T01:25:04;9.57;;;5.60;;
11854;SDS011;5987;53.140;8.904;2023-02-28T01:28:09;7.23;;;5.10;;
11854;SDS011;5987;53.140;8.904;2023-02-28T01:31:13;7.60;;;5.07;;
11854;SDS011;5987;53.140;8.904;2023-02-28T01:34:20;7.63;;;5.50;;
11854;SDS011;5987;53.140;8.904;2023-02-28T01:37:25;8.47;;;5.40;;
11854;SDS011;5987;53.140;8.904;2023-02-28T01:40:29;7.60;;;4.87;;
11854;SDS011;5987;53.140;8.904;2023-02-28T01:47:07;10.80;;;6.33;;
11854;SDS011;5987;53.140;8.904;2023-02-28T01:50:12;11.70;;;6.33;;
11854;SDS011;5987;53.140;8.904;2023-02-28T01:53:23;9.87;;;6.50;;
11854;SDS011;5987;53.140;8.904;2023-02-28T01:56:35;10.23;;;6.47;;
11854;SDS011;5987;53.140;8.904;2023-02-28T01:59:40;11.93;;;6.83;;
11854;SDS011;5987;53.140;8.904;2023-02-28T02:02:54;9.43;;;6.30;;
11854;SDS011;5987;53.140;8.904;2023-02-28T02:06:03;11.60;;;5.97;;
11854;SDS011;5987;53.140;8.904;2023-02-28T02:09:08;9.10;;;5.37;;
11854;SDS011;5987;53.140;8.904;2023-02-28T02:12:15;7.40;;;5.10;;
11854;SDS011;5987;53.140;8.904;2023-02-28T02:15:39;8.03;;;5.80;;
11854;SDS011;5987;53.140;8.904;2023-02-28T02:18:51;10.53;;;5.40;;
11854;SDS011;5987;53.140;8.904;2023-02-28T02:22:08;8.40;;;5.07;;
11854;SDS011;5987;53.140;8.904;2023-02-28T02:25:36;7.50;;;5.27;;
11854;SDS011;5987;53.140;8.904;2023-02-28T02:32:46;8.47;;;5.33;;
11854;SDS011;5987;53.140;8.904;2023-02-28T02:36:07;7.63;;;5.07;;
11854;SDS011;5987;53.140;8.904;2023-02-28T02:39:22;8.47;;;5.43;;
11854;SDS011;5987;53.140;8.904;2023-02-28T02:42:38;7.57;;;5.17;;
11854;SDS011;5987;53.140;8.904;2023-02-28T02:45:53;7.27;;;5.03;;
11854;SDS011;5987;53.140;8.904;2023-02-28T02:49:03;6.43;;;4.97;;
11854;SDS011;5987;53.140;8.904;2023-02-28T02:52:14;8.13;;;5.07;;
11854;SDS011;5987;53.140;8.904;2023-02-28T02:55:23;6.10;;;4.83;;
11854;SDS011;5987;53.140;8.904;2023-02-28T02:58:31;9.90;;;4.93;;
11854;SDS011;5987;53.140;8.904;2023-02-28T03:01:44;6.27;;;5.10;;
11854;SDS011;5987;53.140;8.904;2023-02-28T03:04:49;5.93;;;4.80;;
11854;SDS011;5987;53.140;8.904;2023-02-28T03:08:04;6.40;;;4.70;;
11854;SDS011;5987;53.140;8.904;2023-02-28T03:11:11;8.73;;;5.50;;
11854;SDS011;5987;53.140;8.904;2023-02-28T03:18:01;7.37;;;4.80;;
11854;SDS011;5987;53.140;8.904;2023-02-28T03:21:12;8.30;;;4.60;;
11854;SDS011;5987;53.140;8.904;2023-02-28T03:24:29;5.70;;;4.90;;
11854;SDS011;5987;53.140;8.904;2023-02-28T03:27:45;11.43;;;4.80;;
11854;SDS011;5987;53.140;8.904;2023-02-28T03:31:03;7.93;;;4.67;;
11854;SDS011;5987;53.140;8.904;2023-02-28T03:34:21;5.43;;;4.03;;
11854;SDS011;5987;53.140;8.904;2023-02-28T03:37:31;8.27;;;4.27;;
11854;SDS011;5987;53.140;8.904;2023-02-28T03:40:43;6.00;;;4.23;;
11854;SDS011;5987;53.140;8.904;2023-02-28T03:43:53;5.90;;;3.83;;
11854;SDS011;5987;53.140;8.904;2023-02-28T03:47:02;9.23;;;4.33;;
11854;SDS011;5987;53.140;8.904;2023-02-28T03:50:12;4.83;;;3.90;;
11854;SDS011;5987;53.140;8.904;2023-02-28T03:53:25;4.43;;;4.03;;
11854;SDS011;5987;53.140;8.904;2023-02-28T03:56:37;7.33;;;4.57;;
11854;SDS011;5987;53.140;8.904;2023-02-28T03:59:46;7.43;;;4.70;;
11854;SDS011;5987;53.140;8.904;2023-02-28T04:02:57;5.50;;;4.03;;
11854;SDS011;5987;53.140;8.904;2023-02-28T04:06:01;6.80;;;4.13;;
11854;SDS011;5987;53.140;8.904;2023-02-28T04:09:07;6.60;;;3.90;;
11854;SDS011;5987;53.140;8.904;2023-02-28T04:12:15;6.67;;;4.00;;
11854;SDS011;5987;53.140;8.904;2023-02-28T04:15:19;5.67;;;3.63;;
11854;SDS011;5987;53.140;8.904;2023-02-28T04:18:24;7.13;;;4.53;;
11854;SDS011;5987;53.140;8.904;2023-02-28T04:21:28;5.90;;;4.17;;
11854;SDS011;5987;53.140;8.904;2023-02-28T04:24:32;5.70;;;4.10;;
11854;SDS011;5987;53.140;8.904;2023-02-28T04:27:37;5.47;;;4.20;;
11854;SDS011;5987;53.140;8.904;2023-02-28T04:30:41;6.63;;;4.13;;
11854;SDS011;5987;53.140;8.904;2023-02-28T04:33:44;6.53;;;4.40;;
11854;SDS011;5987;53.140;8.904;2023-02-28T04:36:48;5.00;;;3.97;;
11854;SDS011;5987;53.140;8.904;2023-02-28T04:40:12;7.93;;;3.97;;
11854;SDS011;5987;53.140;8.904;2023-02-28T04:43:17;6.27;;;4.13;;
11854;SDS011;5987;53.140;8.904;2023-02-28T04:46:21;6.57;;;4.30;;
11854;SDS011;5987;53.140;8.904;2023-02-28T04:49:25;8.17;;;4.40;;
11854;SDS011;5987;53.140;8.904;2023-02-28T04:52:29;4.10;;;3.70;;
11854;SDS011;5987;53.140;8.904;2023-02-28T04:55:33;5.07;;;3.63;;
11854;SDS011;5987;53.140;8.904;2023-02-28T04:58:38;8.60;;;4.30;;
11854;SDS011;5987;53.140;8.904;2023-02-28T05:01:44;5.97;;;3.60;;
11854;SDS011;5987;53.140;8.904;2023-02-28T05:04:50;7.57;;;4.30;;
11854;SDS011;5987;53.140;8.904;2023-02-28T05:07:53;6.33;;;4.17;;
11854;SDS011;5987;53.140;8.904;2023-02-28T05:10:57;6.07;;;4.57;;
11854;SDS011;5987;53.140;8.904;2023-02-28T05:14:04;5.73;;;3.93;;
11854;SDS011;5987;53.140;8.904;2023-02-28T05:17:11;7.90;;;4.10;;
11854;SDS011;5987;53.140;8.904;2023-02-28T05:20:15;6.73;;;4.00;;
11854;SDS011;5987;53.140;8.904;2023-02-28T05:23:19;6.03;;;4.07;;
11854;SDS011;5987;53.140;8.904;2023-02-28T05:26:26;5.70;;;4.17;;
11854;SDS011;5987;53.140;8.904;2023-02-28T05:29:31;5.57;;;4.33;;
11854;SDS011;5987;53.140;8.904;2023-02-28T05:32:35;7.70;;;4.17;;
11854;SDS011;5987;53.140;8.904;2023-02-28T05:35:39;9.90;;;4.57;;
11854;SDS011;5987;53.140;8.904;2023-02-28T05:38:45;7.80;;;4.53;;
11854;SDS011;5987;53.140;8.904;2023-02-28T05:41:50;7.37;;;4.43;;
11854;SDS011;5987;53.140;8.904;2023-02-28T05:44:55;9.23;;;5.90;;
11854;SDS011;5987;53.140;8.904;2023-02-28T05:47:59;11.03;;;7.97;;
11854;SDS011;5987;53.140;8.904;2023-02-28T05:51:03;13.37;;;9.20;;
11854;SDS011;5987;53.140;8.904;2023-02-28T05:54:08;11.90;;;7.47;;
11854;SDS011;5987;53.140;8.904;2023-02-28T05:57:14;6.77;;;5.00;;
11854;SDS011;5987;53.140;8.904;2023-02-28T06:00:26;5.83;;;4.30;;
11854;SDS011;5987;53.140;8.904;2023-02-28T06:03:30;6.60;;;4.33;;
11854;SDS011;5987;53.140;8.904;2023-02-28T06:06:34;5.77;;;4.50;;
11854;SDS011;5987;53.140;8.904;2023-02-28T06:09:38;4.97;;;4.00;;
11854;SDS011;5987;53.140;8.904;2023-02-28T06:12:43;6.27;;;4.47;;
11854;SDS011;5987;53.140;8.904;2023-02-28T06:15:48;5.50;;;4.17;;
11854;SDS011;5987;53.140;8.904;2023-02-28T06:18:51;7.40;;;4.90;;
11854;SDS011;5987;53.140;8.904;2023-02-28T06:21:57;6.17;;;4.13;;
11854;SDS011;5987;53.140;8.904;2023-02-28T06:25:01;8.17;;;4.90;;
11854;SDS011;5987;53.140;8.904;2023-02-28T06:28:05;8.60;;;4.87;;
11854;SDS011;5987;53.140;8.904;2023-02-28T06:31:11;4.87;;;4.33;;
11854;SDS011;5987;53.140;8.904;2023-02-28T06:34:17;9.03;;;4.30;;
11854;SDS011;5987;53.140;8.904;2023-02-28T06:37:21;7.53;;;5.07;;
11854;SDS011;5987;53.140;8.904;2023-02-28T06:40:27;8.37;;;5.07;;
11854;SDS011;5987;53.140;8.904;2023-02-28T06:43:34;6.70;;;4.10;;
11854;SDS011;5987;53.140;8.904;2023-02-28T06:46:42;5.43;;;3.90;;
11854;SDS011;5987;53.140;8.904;2023-02-28T06:49:47;6.20;;;4.10;;
11854;SDS011;5987;53.140;8.904;2023-02-28T06:52:51;5.97;;;4.47;;
11854;SDS011;5987;53.140;8.904;2023-02-28T06:55:57;5.97;;;4.70;;
11854;SDS011;5987;53.140;8.904;2023-02-28T06:59:00;6.00;;;4.63;;
11854;SDS011;5987;53.140;8.904;2023-02-28T07:02:07;10.30;;;4.40;;
11854;SDS011;5987;53.140;8.904;2023-02-28T07:05:11;5.60;;;4.37;;
11854;SDS011;5987;53.140;8.904;2023-02-28T07:08:15;8.50;;;4.60;;
11854;SDS011;5987;53.140;8.904;2023-02-28T07:11:19;6.47;;;4.40;;
11854;SDS011;5987;53.140;8.904;2023-02-28T07:14:26;7.53;;;4.67;;
11854;SDS011;5987;53.140;8.904;2023-02-28T07:17:31;10.87;;;4.33;;
11854;SDS011;5987;53.140;8.904;2023-02-28T07:20:35;5.70;;;4.17;;
11854;SDS011;5987;53.140;8.904;2023-02-28T07:23:39;6.57;;;4.40;;
11854;SDS011;5987;53.140;8.904;2023-02-28T07:26:43;7.53;;;4.90;;
11854;SDS011;5987;53.140;8.904;2023-02-28T07:29:47;8.77;;;4.20;;
11854;SDS011;5987;53.140;8.904;2023-02-28T07:32:52;6.30;;;4.67;;
11854;SDS011;5987;53.140;8.904;2023-02-28T07:35:59;7.37;;;4.83;;
11854;SDS011;5987;53.140;8.904;2023-02-28T07:39:04;7.20;;;4.60;;
11854;SDS011;5987;53.140;8.904;2023-02-28T07:42:11;5.93;;;4.33;;
11854;SDS011;5987;53.140;8.904;2023-02-28T07:45:21;5.63;;;4.10;;
11854;SDS011;5987;53.140;8.904;2023-02-28T07:48:26;6.73;;;4.90;;
11854;SDS011;5987;53.140;8.904;2023-02-28T07:51:29;8.10;;;4.67;;
11854;SDS011;5987;53.140;8.904;2023-02-28T07:54:34;8.63;;;4.73;;
11854;SDS011;5987;53.140;8.904;2023-02-28T07:57:38;10.30;;;5.40;;
11854;SDS011;5987;53.140;8.904;2023-02-28T08:00:42;6.20;;;4.53;;
11854;SDS011;5987;53.140;8.904;2023-02-28T08:03:47;6.83;;;4.77;;
11854;SDS011;5987;53.140;8.904;2023-02-28T08:06:51;5.10;;;4.60;;
11854;SDS011;5987;53.140;8.904;2023-02-28T08:09:55;6.80;;;4.87;;
11854;SDS011;5987;53.140;8.904;2023-02-28T08:12:59;6.70;;;5.10;;
11854;SDS011;5987;53.140;8.904;2023-02-28T08:16:02;5.70;;;4.70;;
11854;SDS011;5987;53.140;8.904;2023-02-28T08:19:08;8.70;;;5.43;;
11854;SDS011;5987;53.140;8.904;2023-02-28T08:22:12;7.57;;;4.93;;
11854;SDS011;5987;53.140;8.904;2023-02-28T08:25:16;7.77;;;5.00;;
11854;SDS011;5987;53.140;8.904;2023-02-28T08:28:20;9.33;;;5.37;;
11854;SDS011;5987;53.140;8.904;2023-02-28T08:31:27;9.53;;;5.03;;
11854;SDS011;5987;53.140;8.904;2023-02-28T08:34:32;10.93;;;5.03;;
11854;SDS011;5987;53.140;8.904;2023-02-28T08:37:36;7.97;;;5.37;;
11854;SDS011;5987;53.140;8.904;2023-02-28T08:40:40;6.03;;;4.50;;
11854;SDS011;5987;53.140;8.904;2023-02-28T08:43:44;6.80;;;4.60;;
11854;SDS011;5987;53.140;8.904;2023-02-28T08:46:47;7.20;;;4.83;;
11854;SDS011;5987;53.140;8.904;2023-02-28T08:49:52;8.03;;;4.30;;
11854;SDS011;5987;53.140;8.904;2023-02-28T08:52:56;5.73;;;4.53;;
11854;SDS011;5987;53.140;8.904;2023-02-28T08:56:02;5.10;;;4.13;;
11854;SDS011;5987;53.140;8.904;2023-02-28T08:59:08;7.87;;;4.30;;
11854;SDS011;5987;53.140;8.904;2023-02-28T09:02:12;9.83;;;4.53;;
11854;SDS011;5987;53.140;8.904;2023-02-28T09:05:18;8.13;;;3.97;;
11854;SDS011;5987;53.140;8.904;2023-02-28T09:08:22;8.40;;;4.17;;
11854;SDS011;5987;53.140;8.904;2023-02-28T09:11:27;12.00;;;3.03;;
11854;SDS011;5987;53.140;8.904;2023-02-28T09:14:31;5.60;;;2.97;;
11854;SDS011;5987;53.140;8.904;2023-02-28T09:17:34;6.80;;;3.53;;
11854;SDS011;5987;53.140;8.904;2023-02-28T09:20:40;3.17;;;2.60;;
11854;SDS011;5987;53.140;8.904;2023-02-28T09:23:46;5.57;;;2.80;;
11854;SDS011;5987;53.140;8.904;2023-02-28T09:26:52;3.00;;;1.73;;
11854;SDS011;5987;53.140;8.904;2023-02-28T09:30:06;6.37;;;1.73;;
11854;SDS011;5987;53.140;8.904;2023-02-28T09:33:11;3.53;;;1.90;;
11854;SDS011;5987;53.140;8.904;2023-02-28T09:36:17;4.77;;;2.10;;
11854;SDS011;5987;53.140;8.904;2023-02-28T09:39:23;3.07;;;1.70;;
11854;SDS011;5987;53.140;8.904;2023-02-28T09:42:31;1.30;;;1.20;;
11854;SDS011;5987;53.140;8.904;2023-02-28T09:45:37;1.50;;;1.20;;
11854;SDS011;5987;53.140;8.904;2023-02-28T09:48:45;2.30;;;1.40;;
11854;SDS011;5987;53.140;8.904;2023-02-28T09:51:55;2.07;;;1.20;;
11854;SDS011;5987;53.140;8.904;2023-02-28T09:55:08;2.73;;;1.47;;
11854;SDS011;5987;53.140;8.904;2023-02-28T09:58:26;1.63;;;1.13;;
11854;SDS011;5987;53.140;8.904;2023-02-28T10:01:39;1.80;;;1.47;;
11854;SDS011;5987;53.140;8.904;2023-02-28T10:04:58;2.87;;;1.37;;
11854;SDS011;5987;53.140;8.904;2023-02-28T10:08:10;3.60;;;1.17;;
11854;SDS011;5987;53.140;8.904;2023-02-28T10:11:18;5.23;;;1.00;;
11854;SDS011;5987;53.140;8.904;2023-02-28T10:14:24;1.40;;;1.10;;
11854;SDS011;5987;53.140;8.904;2023-02-28T10:17:35;1.73;;;1.07;;
11854;SDS011;5987;53.140;8.904;2023-02-28T10:21:01;2.53;;;1.60;;
11854;SDS011;5987;53.140;8.904;2023-02-28T10:24:13;2.93;;;1.60;;
11854;SDS011;5987;53.140;8.904;2023-02-28T10:27:27;3.07;;;1.97;;
11854;SDS011;5987;53.140;8.904;2023-02-28T10:30:34;1.20;;;1.10;;
11854;SDS011;5987;53.140;8.904;2023-02-28T10:33:42;2.03;;;1.00;;
11854;SDS011;5987;53.140;8.904;2023-02-28T10:36:46;1.27;;;1.00;;
11854;SDS011;5987;53.140;8.904;2023-02-28T10:39:53;1.40;;;0.83;;
11854;SDS011;5987;53.140;8.904;2023-02-28T10:42:58;3.23;;;1.10;;
11854;SDS011;5987;53.140;8.904;2023-02-28T10:46:05;2.50;;;1.17;;
11854;SDS011;5987;53.140;8.904;2023-02-28T10:49:28;3.53;;;1.40;;
11854;SDS011;5987;53.140;8.904;2023-02-28T10:52:33;2.00;;;1.23;;
11854;SDS011;5987;53.140;8.904;2023-02-28T10:55:42;1.87;;;1.53;;
11854;SDS011;5987;53.140;8.904;2023-02-28T10:58:49;2.97;;;1.10;;
11854;SDS011;5987;53.140;8.904;2023-02-28T11:01:57;1.80;;;1.43;;
11854;SDS011;5987;53.140;8.904;2023-02-28T11:05:01;1.87;;;1.13;;
11854;SDS011;5987;53.140;8.904;2023-02-28T11:08:05;2.10;;;1.50;;
11854;SDS011;5987;53.140;8.904;2023-02-28T11:11:18;3.60;;;1.60;;
11854;SDS011;5987;53.140;8.904;2023-02-28T11:14:25;2.00;;;1.70;;
11854;SDS011;5987;53.140;8.904;2023-02-28T11:17:33;1.53;;;1.40;;
11854;SDS011;5987;53.140;8.904;2023-02-28T11:20:37;1.60;;;1.33;;
11854;SDS011;5987;53.140;8.904;2023-02-28T11:23:43;3.37;;;1.60;;
11854;SDS011;5987;53.140;8.904;2023-02-28T11:26:48;4.63;;;1.93;;
11854;SDS011;5987;53.140;8.904;2023-02-28T11:29:52;2.77;;;1.70;;
11854;SDS011;5987;53.140;8.904;2023-02-28T11:32:56;3.07;;;1.87;;
11854;SDS011;5987;53.140;8.904;2023-02-28T11:36:01;3.47;;;1.80;;
11854;SDS011;5987;53.140;8.904;2023-02-28T11:39:12;2.90;;;1.50;;
11854;SDS011;5987;53.140;8.904;2023-02-28T11:42:34;2.83;;;1.53;;
11854;SDS011;5987;53.140;8.904;2023-02-28T11:46:04;2.00;;;1.60;;
11854;SDS011;5987;53.140;8.904;2023-02-28T11:49:30;1.63;;;1.53;;
11854;SDS011;5987;53.140;8.904;2023-02-28T11:52:42;3.20;;;1.63;;
11854;SDS011;5987;53.140;8.904;2023-02-28T11:55:56;2.17;;;1.80;;
11854;SDS011;5987;53.140;8.904;2023-02-28T11:59:24;2.47;;;1.50;;
11854;SDS011;5987;53.140;8.904;2023-02-28T12:02:52;3.43;;;1.50;;
11854;SDS011;5987;53.140;8.904;2023-02-28T12:06:20;3.37;;;1.60;;
11854;SDS011;5987;53.140;8.904;2023-02-28T12:09:44;2.80;;;1.57;;
11854;SDS011;5987;53.140;8.904;2023-02-28T12:13:07;2.70;;;1.67;;
11854;SDS011;5987;53.140;8.904;2023-02-28T12:16:32;2.27;;;1.40;;
11854;SDS011;5987;53.140;8.904;2023-02-28T12:20:02;2.13;;;1.57;;
11854;SDS011;5987;53.140;8.904;2023-02-28T12:23:21;3.27;;;1.77;;
11854;SDS011;5987;53.140;8.904;2023-02-28T12:26:51;2.07;;;1.57;;
11854;SDS011;5987;53.140;8.904;2023-02-28T12:30:01;1.63;;;1.47;;
11854;SDS011;5987;53.140;8.904;2023-02-28T12:33:11;1.93;;;1.37;;
11854;SDS011;5987;53.140;8.904;2023-02-28T12:36:19;1.73;;;1.33;;
11854;SDS011;5987;53.140;8.904;2023-02-28T12:39:26;1.43;;;1.17;;
11854;SDS011;5987;53.140;8.904;2023-02-28T12:42:49;1.80;;;1.40;;
11854;SDS011;5987;53.140;8.904;2023-02-28T12:46:00;2.20;;;1.30;;
11854;SDS011;5987;53.140;8.904;2023-02-28T12:49:15;2.17;;;1.50;;
11854;SDS011;5987;53.140;8.904;2023-02-28T12:52:25;2.47;;;2.13;;
11854;SDS011;5987;53.140;8.904;2023-02-28T12:55:46;1.80;;;0.90;;
11854;SDS011;5987;53.140;8.904;2023-02-28T12:59:01;3.00;;;1.70;;
11854;SDS011;5987;53.140;8.904;2023-02-28T13:06:12;3.10;;;1.33;;
11854;SDS011;5987;53.140;8.904;2023-02-28T13:09:51;2.13;;;1.27;;
11854;SDS011;5987;53.140;8.904;2023-02-28T13:12:56;1.57;;;1.47;;
11854;SDS011;5987;53.140;8.904;2023-02-28T13:16:01;3.03;;;1.47;;
11854;SDS011;5987;53.140;8.904;2023-02-28T13:19:09;1.30;;;1.17;;
11854;SDS011;5987;53.140;8.904;2023-02-28T13:22:19;1.60;;;1.50;;
11854;SDS011;5987;53.140;8.904;2023-02-28T13:25:51;2.60;;;1.50;;
11854;SDS011;5987;53.140;8.904;2023-02-28T13:28:57;2.83;;;1.50;;
11854;SDS011;5987;53.140;8.904;2023-02-28T13:32:31;1.63;;;1.30;;
11854;SDS011;5987;53.140;8.904;2023-02-28T13:35:43;1.60;;;1.50;;
11854;SDS011;5987;53.140;8.904;2023-02-28T13:38:48;3.30;;;1.60;;
11854;SDS011;5987;53.140;8.904;2023-02-28T13:41:54;1.63;;;1.20;;
11854;SDS011;5987;53.140;8.904;2023-02-28T13:45:20;2.03;;;1.40;;
11854;SDS011;5987;53.140;8.904;2023-02-28T13:48:32;1.57;;;1.30;;
11854;SDS011;5987;53.140;8.904;2023-02-28T13:51:38;1.87;;;1.37;;
11854;SDS011;5987;53.140;8.904;2023-02-28T13:54:51;2.20;;;1.63;;
11854;SDS011;5987;53.140;8.904;2023-02-28T13:58:40;2.13;;;1.50;;
11854;SDS011;5987;53.140;8.904;2023-02-28T14:02:03;2.50;;;1.60;;
11854;SDS011;5987;53.140;8.904;2023-02-28T14:05:38;1.30;;;1.20;;
11854;SDS011;5987;53.140;8.904;2023-02-28T14:08:45;2.93;;;1.40;;
11854;SDS011;5987;53.140;8.904;2023-02-28T14:11:59;1.97;;;1.27;;
11854;SDS011;5987;53.140;8.904;2023-02-28T14:15:57;1.90;;;1.33;;
11854;SDS011;5987;53.140;8.904;2023-02-28T14:19:03;3.70;;;1.50;;
11854;SDS011;5987;53.140;8.904;2023-02-28T14:22:21;1.93;;;1.40;;
11854;SDS011;5987;53.140;8.904;2023-02-28T14:25:53;4.07;;;1.50;;
11854;SDS011;5987;53.140;8.904;2023-02-28T14:29:14;2.07;;;1.33;;
11854;SDS011;5987;53.140;8.904;2023-02-28T14:32:40;1.40;;;1.20;;
11854;SDS011;5987;53.140;8.904;2023-02-28T14:35:57;1.87;;;1.63;;
11854;SDS011;5987;53.140;8.904;2023-02-28T14:39:13;2.10;;;1.57;;
11854;SDS011;5987;53.140;8.904;2023-02-28T14:42:27;2.40;;;1.50;;
11854;SDS011;5987;53.140;8.904;2023-02-28T14:45:33;1.20;;;1.10;;
11854;SDS011;5987;53.140;8.904;2023-02-28T14:48:39;2.37;;;1.73;;
11854;SDS011;5987;53.140;8.904;2023-02-28T14:51:43;2.47;;;1.60;;
11854;SDS011;5987;53.140;8.904;2023-02-28T14:54:52;2.30;;;1.07;;
11854;SDS011;5987;53.140;8.904;2023-02-28T14:57:59;2.30;;;1.50;;
11854;SDS011;5987;53.140;8.904;2023-02-28T15:01:09;3.27;;;1.20;;
11854;SDS011;5987;53.140;8.904;2023-02-28T15:04:18;1.50;;;1.13;;
11854;SDS011;5987;53.140;8.904;2023-02-28T15:07:30;1.87;;;1.40;;
11854;SDS011;5987;53.140;8.904;2023-02-28T15:10:35;2.10;;;1.50;;
11854;SDS011;5987;53.140;8.904;2023-02-28T15:13:43;1.57;;;1.47;;
11854;SDS011;5987;53.140;8.904;2023-02-28T15:16:51;1.43;;;1.20;;
11854;SDS011;5987;53.140;8.904;2023-02-28T15:20:02;1.13;;;1.00;;
11854;SDS011;5987;53.140;8.904;2023-02-28T15:23:07;1.83;;;1.23;;
11854;SDS011;5987;53.140;8.904;2023-02-28T15:26:14;1.33;;;1.23;;
11854;SDS011;5987;53.140;8.904;2023-02-28T15:29:23;1.10;;;1.00;;
11854;SDS011;5987;53.140;8.904;2023-02-28T15:32:33;2.13;;;1.10;;
11854;SDS011;5987;53.140;8.904;2023-02-28T15:35:40;2.10;;;1.50;;
11854;SDS011;5987;53.140;8.904;2023-02-28T15:38:44;2.73;;;1.87;;
11854;SDS011;5987;53.140;8.904;2023-02-28T15:45:28;2.03;;;1.83;;
11854;SDS011;5987;53.140;8.904;2023-02-28T15:48:42;2.90;;;2.13;;
11854;SDS011;5987;53.140;8.904;2023-02-28T15:51:55;1.90;;;1.77;;
11854;SDS011;5987;53.140;8.904;2023-02-28T15:55:07;2.53;;;1.30;;
11854;SDS011;5987;53.140;8.904;2023-02-28T15:58:16;3.53;;;1.50;;
11854;SDS011;5987;53.140;8.904;2023-02-28T16:01:24;1.50;;;1.40;;
11854;SDS011;5987;53.140;8.904;2023-02-28T16:04:32;1.67;;;1.37;;
11854;SDS011;5987;53.140;8.904;2023-02-28T16:07:37;1.80;;;1.60;;
11854;SDS011;5987;53.140;8.904;2023-02-28T16:10:42;1.90;;;1.27;;
11854;SDS011;5987;53.140;8.904;2023-02-28T16:13:49;2.53;;;2.33;;
11854;SDS011;5987;53.140;8.904;2023-02-28T16:16:56;4.63;;;1.77;;
11854;SDS011;5987;53.140;8.904;2023-02-28T16:20:15;3.13;;;1.50;;
11854;SDS011;5987;53.140;8.904;2023-02-28T16:23:22;1.80;;;1.30;;
11854;SDS011;5987;53.140;8.904;2023-02-28T16:26:26;3.03;;;1.70;;
11854;SDS011;5987;53.140;8.904;2023-02-28T16:29:32;1.50;;;1.40;;
11854;SDS011;5987;53.140;8.904;2023-02-28T16:32:39;1.90;;;1.70;;
11854;SDS011;5987;53.140;8.904;2023-02-28T16:35:43;6.33;;;2.47;;
11854;SDS011;5987;53.140;8.904;2023-02-28T16:38:47;5.00;;;3.53;;
11854;SDS011;5987;53.140;8.904;2023-02-28T16:41:51;3.40;;;2.23;;
11854;SDS011;5987;53.140;8.904;2023-02-28T16:44:57;1.70;;;1.60;;
11854;SDS011;5987;53.140;8.904;2023-02-28T16:48:01;1.70;;;1.47;;
11854;SDS011;5987;53.140;8.904;2023-02-28T16:51:04;1.00;;;1.00;;
11854;SDS011;5987;53.140;8.904;2023-02-28T16:54:08;2.07;;;1.30;;
11854;SDS011;5987;53.140;8.904;2023-02-28T16:57:15;6.07;;;2.87;;
11854;SDS011;5987;53.140;8.904;2023-02-28T17:00:26;3.40;;;2.10;;
11854;SDS011;5987;53.140;8.904;2023-02-28T17:03:32;2.93;;;1.73;;
11854;SDS011;5987;53.140;8.904;2023-02-28T17:06:39;1.87;;;1.67;;
11854;SDS011;5987;53.140;8.904;2023-02-28T17:09:43;3.23;;;2.00;;
11854;SDS011;5987;53.140;8.904;2023-02-28T17:12:47;3.27;;;2.03;;
11854;SDS011;5987;53.140;8.904;2023-02-28T17:15:52;3.60;;;1.97;;
11854;SDS011;5987;53.140;8.904;2023-02-28T17:18:58;3.93;;;2.90;;
11854;SDS011;5987;53.140;8.904;2023-02-28T17:22:04;2.97;;;2.50;;
11854;SDS011;5987;53.140;8.904;2023-02-28T17:25:08;5.83;;;2.80;;
11854;SDS011;5987;53.140;8.904;2023-02-28T17:28:13;17.57;;;3.37;;
11854;SDS011;5987;53.140;8.904;2023-02-28T17:31:18;4.07;;;2.57;;
11854;SDS011;5987;53.140;8.904;2023-02-28T17:34:22;4.63;;;2.73;;
11854;SDS011;5987;53.140;8.904;2023-02-28T17:37:26;3.87;;;2.97;;
11854;SDS011;5987;53.140;8.904;2023-02-28T17:40:30;7.03;;;3.43;;
11854;SDS011;5987;53.140;8.904;2023-02-28T17:43:35;8.27;;;5.03;;
11854;SDS011;5987;53.140;8.904;2023-02-28T17:46:41;7.53;;;3.70;;
11854;SDS011;5987;53.140;8.904;2023-02-28T17:49:46;7.47;;;4.17;;
11854;SDS011;5987;53.140;8.904;2023-02-28T17:52:50;4.87;;;3.37;;
11854;SDS011;5987;53.140;8.904;2023-02-28T17:55:54;3.67;;;2.57;;
11854;SDS011;5987;53.140;8.904;2023-02-28T17:58:57;5.07;;;3.50;;
11854;SDS011;5987;53.140;8.904;2023-02-28T18:02:03;4.03;;;3.07;;
11854;SDS011;5987;53.140;8.904;2023-02-28T18:05:07;4.23;;;3.10;;
11854;SDS011;5987;53.140;8.904;2023-02-28T18:08:11;5.30;;;2.97;;
11854;SDS011;5987;53.140;8.904;2023-02-28T18:11:18;3.40;;;2.67;;
11854;SDS011;5987;53.140;8.904;2023-02-28T18:14:24;4.53;;;2.77;;
11854;SDS011;5987;53.140;8.904;2023-02-28T18:17:29;3.53;;;2.70;;
11854;SDS011;5987;53.140;8.904;2023-02-28T18:20:33;4.13;;;2.93;;
11854;SDS011;5987;53.140;8.904;2023-02-28T18:23:37;6.13;;;3.07;;
11854;SDS011;5987;53.140;8.904;2023-02-28T18:26:48;4.13;;;2.67;;
11854;SDS011;5987;53.140;8.904;2023-02-28T18:29:53;4.13;;;3.00;;
11854;SDS011;5987;53.140;8.904;2023-02-28T18:32:58;4.17;;;2.93;;
11854;SDS011;5987;53.140;8.904;2023-02-28T18:36:04;6.60;;;3.13;;
11854;SDS011;5987;53.140;8.904;2023-02-28T18:39:08;6.60;;;4.10;;
11854;SDS011;5987;53.140;8.904;2023-02-28T18:42:12;8.57;;;4.70;;
11854;SDS011;5987;53.140;8.904;2023-02-28T18:45:36;8.57;;;5.33;;
11854;SDS011;5987;53.140;8.904;2023-02-28T18:48:42;11.40;;;7.47;;
11854;SDS011;5987;53.140;8.904;2023-02-28T18:51:47;10.07;;;6.33;;
11854;SDS011;5987;53.140;8.904;2023-02-28T18:54:51;13.27;;;7.63;;
11854;SDS011;5987;53.140;8.904;2023-02-28T18:57:55;5.97;;;4.80;;
11854;SDS011;5987;53.140;8.904;2023-02-28T19:00:59;6.60;;;3.93;;
11854;SDS011;5987;53.140;8.904;2023-02-28T19:04:05;7.57;;;4.80;;
11854;SDS011;5987;53.140;8.904;2023-02-28T19:07:10;6.80;;;4.80;;
11854;SDS011;5987;53.140;8.904;2023-02-28T19:10:14;7.20;;;5.13;;
11854;SDS011;5987;53.140;8.904;2023-02-28T19:13:18;12.40;;;5.67;;
11854;SDS011;5987;53.140;8.904;2023-02-28T19:16:23;9.37;;;5.57;;
11854;SDS011;5987;53.140;8.904;2023-02-28T19:19:30;7.43;;;5.63;;
11854;SDS011;5987;53.140;8.904;2023-02-28T19:22:33;7.43;;;6.03;;
11854;SDS011;5987;53.140;8.904;2023-02-28T19:25:39;7.03;;;4.87;;
11854;SDS011;5987;53.140;8.904;2023-02-28T19:28:43;9.27;;;5.63;;
11854;SDS011;5987;53.140;8.904;2023-02-28T19:31:48;6.97;;;4.30;;